createdAt,value
2023-04-03T00:00:57.645Z,65.69
2023-04-03T00:03:24.421Z,65.29
2023-04-03T00:05:51.218Z,66.01
2023-04-03T00:08:18.845Z,65.64
2023-04-03T00:10:45.309Z,64.85
2023-04-03T00:13:12.086Z,64.36
2023-04-03T00:15:39.203Z,64.40
2023-04-03T00:18:06.850Z,64.71
2023-04-03T00:20:34.711Z,64.47
2023-04-03T00:23:02.795Z,64.74
2023-04-03T00:25:29.729Z,65.33
2023-04-03T00:27:56.407Z,65.32
2023-04-03T00:30:23.529Z,66.02
2023-04-03T00:32:51.034Z,65.92
2023-04-03T00:35:19.152Z,66.10
2023-04-03T00:37:46.923Z,65.85
2023-04-03T00:40:16.234Z,66.07
2023-04-03T00:42:44.508Z,66.37
2023-04-03T00:45:25.485Z,66.37
2023-04-03T00:47:52.485Z,67.28
2023-04-03T00:50:21.007Z,67.40
2023-04-03T00:52:50.317Z,67.31
2023-04-03T00:55:17.772Z,67.50
2023-04-03T00:57:47.019Z,67.75
2023-04-03T01:00:17.300Z,67.78
2023-04-03T01:02:45.811Z,68.01
2023-04-03T01:05:17.299Z,67.43
2023-04-03T01:07:46.136Z,66.70
2023-04-03T01:10:16.534Z,68.07
2023-04-03T01:12:46.778Z,68.30
2023-04-03T01:15:26.888Z,69.01
2023-04-03T01:17:58.953Z,68.35
2023-04-03T01:20:38.628Z,69.35
2023-04-03T01:23:11.141Z,70.21
2023-04-03T01:25:44.153Z,69.83
2023-04-03T01:28:21.744Z,69.63
2023-04-03T01:31:06.765Z,70.13
2023-04-03T01:33:36.583Z,70.64
2023-04-03T01:36:04.642Z,71.18
2023-04-03T01:38:32.327Z,71.13
2023-04-03T01:40:59.010Z,70.76
2023-04-03T01:43:25.669Z,70.66
2023-04-03T01:45:54.174Z,70.33
2023-04-03T01:48:21.193Z,71.18
2023-04-03T01:50:49.830Z,71.06
2023-04-03T01:53:16.738Z,71.83
2023-04-03T01:55:43.727Z,71.62
2023-04-03T01:58:11.076Z,71.94
2023-04-03T02:00:38.479Z,70.80
2023-04-03T02:03:05.785Z,71.93
2023-04-03T02:05:34.039Z,71.75
2023-04-03T02:08:01.000Z,71.38
2023-04-03T02:10:28.698Z,71.50
2023-04-03T02:12:57.041Z,72.12
2023-04-03T02:15:23.937Z,72.20
2023-04-03T02:17:50.488Z,71.59
2023-04-03T02:20:17.403Z,71.29
2023-04-03T02:22:44.193Z,70.87
2023-04-03T02:25:11.361Z,71.56
2023-04-03T02:27:37.938Z,71.91
2023-04-03T02:30:05.434Z,71.56
2023-04-03T02:32:33.496Z,72.89
2023-04-03T02:35:01.749Z,72.33
2023-04-03T02:37:28.318Z,72.57
2023-04-03T02:39:55.048Z,72.39
2023-04-03T02:42:21.716Z,72.68
2023-04-03T02:44:48.434Z,72.71
2023-04-03T02:47:14.942Z,72.09
2023-04-03T02:49:41.551Z,72.11
2023-04-03T02:52:08.402Z,72.23
2023-04-03T02:54:34.918Z,72.62
2023-04-03T02:57:05.368Z,72.44
2023-04-03T02:59:31.939Z,71.64
2023-04-03T03:01:58.605Z,72.19
2023-04-03T03:04:25.339Z,71.94
2023-04-03T03:06:51.869Z,71.05
2023-04-03T03:09:18.482Z,71.78
2023-04-03T03:11:45.294Z,71.84
2023-04-03T03:14:11.776Z,72.23
2023-04-03T03:16:38.292Z,71.36
2023-04-03T03:19:05.079Z,71.77
2023-04-03T03:21:32.079Z,71.46
2023-04-03T03:23:58.739Z,71.42
2023-04-03T03:26:25.993Z,71.66
2023-04-03T03:28:52.535Z,71.46
2023-04-03T03:31:19.140Z,72.25
2023-04-03T03:33:46.000Z,71.38
2023-04-03T03:36:13.547Z,71.51
2023-04-03T03:38:40.294Z,72.28
2023-04-03T03:41:07.038Z,71.45
2023-04-03T03:43:38.087Z,71.03
2023-04-03T03:46:06.860Z,71.61
2023-04-03T03:48:33.488Z,71.16
2023-04-03T03:50:59.963Z,71.06
2023-04-03T03:53:30.882Z,71.28
2023-04-03T03:56:02.770Z,70.73
2023-04-03T03:58:30.996Z,70.99
2023-04-03T04:00:57.787Z,71.38
2023-04-03T04:03:25.071Z,71.32
2023-04-03T04:05:52.247Z,71.32
2023-04-03T04:08:19.409Z,71.74
2023-04-03T04:10:47.409Z,71.77
2023-04-03T04:13:17.691Z,71.12
2023-04-03T04:15:45.356Z,71.17
2023-04-03T04:18:13.258Z,71.34
2023-04-03T04:20:42.652Z,71.42
2023-04-03T04:23:09.464Z,71.61
2023-04-03T04:25:37.715Z,71.03
2023-04-03T04:28:06.254Z,71.84
2023-04-03T04:30:33.009Z,72.02
2023-04-03T04:32:59.904Z,70.96
2023-04-03T04:35:27.531Z,71.43
2023-04-03T04:37:54.067Z,71.52
2023-04-03T04:40:21.735Z,71.24
2023-04-03T04:42:49.063Z,71.31
2023-04-03T04:45:17.019Z,71.99
2023-04-03T04:47:45.683Z,72.31
2023-04-03T04:50:12.877Z,71.97
2023-04-03T04:52:42.571Z,71.58
2023-04-03T04:55:09.926Z,71.28
2023-04-03T04:57:38.065Z,71.28
2023-04-03T05:00:06.069Z,70.69
2023-04-03T05:02:32.841Z,71.17
2023-04-03T05:04:59.786Z,71.37
2023-04-03T05:07:29.041Z,71.16
2023-04-03T05:09:57.836Z,71.26
2023-04-03T05:12:24.454Z,70.66
2023-04-03T05:14:56.248Z,71.04
2023-04-03T05:17:24.622Z,72.13
2023-04-03T05:19:55.146Z,71.62
2023-04-03T05:22:23.084Z,72.13
2023-04-03T05:24:52.350Z,71.62
2023-04-03T05:27:20.345Z,71.62
2023-04-03T05:29:54.026Z,71.47
2023-04-03T05:32:24.526Z,71.87
2023-04-03T05:35:00.090Z,72.08
2023-04-03T05:37:28.143Z,72.90
2023-04-03T05:39:55.932Z,72.12
2023-04-03T05:42:22.996Z,72.80
2023-04-03T05:44:51.075Z,73.55
2023-04-03T05:47:19.111Z,74.63
2023-04-03T05:49:46.686Z,74.65
2023-04-03T05:52:23.806Z,75.65
2023-04-03T05:54:53.414Z,75.88
2023-04-03T05:57:25.561Z,76.77
2023-04-03T05:59:52.345Z,77.30
2023-04-03T06:02:22.648Z,77.44
2023-04-03T06:04:50.711Z,78.23
2023-04-03T06:07:22.060Z,78.45
2023-04-03T06:09:52.112Z,78.04
2023-04-03T06:12:19.583Z,78.77
2023-04-03T06:14:46.543Z,77.85
2023-04-03T06:17:17.054Z,79.16
2023-04-03T06:19:43.771Z,79.49
2023-04-03T06:22:10.540Z,78.94
2023-04-03T06:24:38.095Z,79.59
2023-04-03T06:27:05.508Z,79.48
2023-04-03T06:29:32.047Z,80.09
2023-04-03T06:31:58.992Z,79.25
2023-04-03T06:34:25.716Z,79.63
2023-04-03T06:36:53.004Z,80.04
2023-04-03T06:39:23.541Z,80.53
2023-04-03T06:41:51.585Z,80.13
2023-04-03T06:44:19.633Z,80.33
2023-04-03T06:46:47.737Z,80.20
2023-04-03T06:49:14.735Z,79.75
2023-04-03T06:51:41.630Z,79.58
2023-04-03T06:54:09.248Z,79.86
2023-04-03T06:56:36.342Z,79.36
2023-04-03T06:59:05.723Z,78.15
2023-04-03T07:01:32.795Z,79.04
2023-04-03T07:03:59.351Z,78.84
2023-04-03T07:06:28.094Z,77.94
2023-04-03T07:08:55.279Z,77.94
2023-04-03T07:11:21.812Z,77.68
2023-04-03T07:13:48.337Z,77.14
2023-04-03T07:16:14.965Z,76.13
2023-04-03T07:18:42.561Z,75.97
2023-04-03T07:21:10.104Z,75.28
2023-04-03T07:23:36.690Z,74.74
2023-04-03T07:26:03.583Z,73.39
2023-04-03T07:28:30.748Z,71.76
2023-04-03T07:31:04.633Z,71.86
2023-04-03T07:33:32.165Z,72.90
2023-04-03T07:36:01.552Z,73.03
2023-04-03T07:38:28.966Z,75.08
2023-04-03T07:40:55.684Z,75.56
2023-04-03T07:43:25.413Z,76.16
2023-04-03T07:45:52.157Z,76.57
2023-04-03T07:48:21.482Z,76.85
2023-04-03T07:50:48.019Z,74.68
2023-04-03T07:53:15.183Z,73.67
2023-04-03T07:55:45.161Z,72.85
2023-04-03T07:58:16.902Z,73.42
2023-04-03T08:00:43.795Z,72.68
2023-04-03T08:03:12.923Z,71.86
2023-04-03T08:05:43.892Z,71.88
2023-04-03T08:08:12.772Z,69.65
2023-04-03T08:10:39.765Z,70.38
2023-04-03T08:13:07.281Z,69.34
2023-04-03T08:15:34.194Z,70.09
2023-04-03T08:18:01.779Z,67.85
2023-04-03T08:20:29.494Z,65.43
2023-04-03T08:22:56.328Z,67.70
2023-04-03T08:25:23.031Z,68.87
2023-04-03T08:27:49.659Z,68.93
2023-04-03T08:30:16.316Z,68.05
2023-04-03T08:32:44.142Z,66.55
2023-04-03T08:35:11.642Z,66.51
2023-04-03T08:37:39.170Z,66.86
2023-04-03T08:40:08.137Z,65.81
2023-04-03T08:42:37.700Z,65.73
2023-04-03T08:45:13.646Z,68.04
2023-04-03T08:47:46.236Z,66.98
2023-04-03T08:50:19.712Z,67.00
2023-04-03T08:52:53.672Z,67.16
2023-04-03T08:55:25.563Z,66.12
2023-04-03T08:58:06.359Z,68.29
2023-04-03T09:00:46.507Z,67.01
2023-04-03T09:03:16.237Z,64.50
2023-04-03T09:05:46.408Z,65.78
2023-04-03T09:08:31.195Z,65.22
2023-04-03T09:11:33.553Z,63.70
2023-04-03T09:14:30.340Z,65.48
2023-04-03T09:17:00.540Z,64.04
2023-04-03T09:19:36.135Z,65.76
2023-04-03T09:22:25.654Z,65.16
2023-04-03T09:25:01.219Z,63.17
2023-04-03T09:27:28.111Z,61.51
2023-04-03T09:29:58.483Z,62.66
2023-04-03T09:32:34.383Z,58.52
2023-04-03T09:35:19.065Z,58.56
2023-04-03T09:37:52.472Z,55.17
2023-04-03T09:40:27.833Z,58.29
2023-04-03T09:43:01.839Z,58.71
2023-04-03T09:45:32.671Z,57.48
2023-04-03T09:48:08.537Z,57.76
2023-04-03T09:50:38.456Z,55.95
2023-04-03T09:53:08.210Z,57.19
2023-04-03T09:55:45.541Z,58.34
2023-04-03T09:58:46.832Z,53.29
2023-04-03T10:01:37.600Z,54.21
2023-04-03T10:04:16.423Z,52.73
2023-04-03T10:06:47.757Z,54.93
2023-04-03T10:09:29.710Z,55.70
2023-04-03T10:12:13.339Z,55.69
2023-04-03T10:14:54.452Z,55.49
2023-04-03T10:17:50.108Z,54.50
2023-04-03T10:20:31.772Z,52.89
2023-04-03T10:23:15.406Z,52.79
2023-04-03T10:26:06.665Z,53.37
2023-04-03T10:28:49.234Z,54.41
2023-04-03T10:31:38.287Z,54.99
2023-04-03T10:34:20.403Z,54.23
2023-04-03T10:37:16.537Z,54.61
2023-04-03T10:40:02.928Z,54.46
2023-04-03T10:42:45.894Z,55.58
2023-04-03T10:45:31.756Z,55.60
2023-04-03T10:48:10.037Z,55.59
2023-04-03T10:50:49.489Z,54.89
2023-04-03T10:53:36.362Z,58.60
2023-04-03T10:56:15.204Z,54.77
2023-04-03T10:58:46.845Z,56.41
2023-04-03T11:01:20.024Z,56.52
2023-04-03T11:03:53.913Z,56.23
2023-04-03T11:06:25.538Z,56.14
2023-04-03T11:08:58.080Z,56.51
2023-04-03T11:11:41.530Z,55.93
2023-04-03T11:14:33.376Z,52.97
2023-04-03T11:17:12.113Z,53.40
2023-04-03T11:20:01.087Z,52.54
2023-04-03T11:22:38.573Z,54.12
2023-04-03T11:25:16.580Z,52.96
2023-04-03T11:27:51.818Z,54.69
2023-04-03T11:30:44.776Z,53.42
2023-04-03T11:33:52.830Z,52.84
2023-04-03T11:36:29.991Z,51.78
2023-04-03T11:39:02.012Z,52.14
2023-04-03T11:41:33.850Z,53.01
2023-04-03T11:44:07.639Z,52.37
2023-04-03T11:46:51.589Z,54.12
2023-04-03T11:49:56.780Z,54.64
2023-04-03T11:52:44.898Z,56.32
2023-04-03T11:55:21.159Z,56.36
2023-04-03T11:57:59.643Z,54.17
2023-04-03T12:00:44.562Z,53.46
2023-04-03T12:03:30.330Z,53.24
2023-04-03T12:06:06.536Z,53.07
2023-04-03T12:08:46.989Z,53.76
2023-04-03T12:11:13.439Z,52.26
2023-04-03T12:14:04.620Z,50.47
2023-04-03T12:16:45.754Z,51.52
2023-04-03T12:19:15.272Z,50.89
2023-04-03T12:21:44.806Z,50.32
2023-04-03T12:24:11.825Z,52.33
2023-04-03T12:26:49.029Z,52.52
2023-04-03T12:29:29.832Z,53.64
2023-04-03T12:32:08.425Z,51.40
2023-04-03T12:34:59.019Z,52.69
2023-04-03T12:37:59.570Z,52.51
2023-04-03T12:40:37.985Z,52.32
2023-04-03T12:43:18.467Z,51.47
2023-04-03T12:45:51.568Z,51.13
2023-04-03T12:48:23.167Z,52.52
2023-04-03T12:50:50.946Z,51.42
2023-04-03T12:53:25.751Z,51.05
2023-04-03T12:56:18.863Z,52.50
2023-04-03T12:58:45.891Z,51.75
2023-04-03T13:01:15.922Z,51.71
2023-04-03T13:03:48.466Z,52.46
2023-04-03T13:06:20.098Z,51.43
2023-04-03T13:09:00.324Z,52.08
2023-04-03T13:11:33.690Z,51.20
2023-04-03T13:14:16.914Z,51.63
2023-04-03T13:16:57.098Z,51.98
2023-04-03T13:19:28.287Z,53.62
2023-04-03T13:22:02.094Z,52.60
2023-04-03T13:24:33.639Z,52.14
2023-04-03T13:27:01.095Z,53.75
2023-04-03T13:29:34.423Z,53.59
2023-04-03T13:32:02.214Z,51.58
2023-04-03T13:34:38.092Z,51.68
2023-04-03T13:37:05.680Z,51.17
2023-04-03T13:39:38.189Z,49.74
2023-04-03T13:42:27.594Z,50.84
2023-04-03T13:45:18.808Z,50.66
2023-04-03T13:47:47.443Z,48.38
2023-04-03T13:50:21.997Z,49.80
2023-04-03T13:52:50.671Z,50.74
2023-04-03T13:55:26.537Z,51.22
2023-04-03T13:58:20.686Z,49.18
2023-04-03T14:00:51.795Z,52.68
2023-04-03T14:03:31.389Z,50.29
2023-04-03T14:05:58.547Z,50.68
2023-04-03T14:08:36.096Z,51.20
2023-04-03T14:11:15.904Z,50.96
2023-04-03T14:13:44.624Z,50.49
2023-04-03T14:16:17.598Z,49.34
2023-04-03T14:18:46.495Z,48.93
2023-04-03T14:21:17.160Z,49.68
2023-04-03T14:23:44.748Z,50.37
2023-04-03T14:26:20.855Z,47.84
2023-04-03T14:28:50.885Z,49.52
2023-04-03T14:31:18.771Z,49.04
2023-04-03T14:33:46.138Z,45.76
2023-04-03T14:36:17.091Z,46.92
2023-04-03T14:38:45.222Z,46.51
2023-04-03T14:41:16.954Z,46.79
2023-04-03T14:43:45.745Z,49.87
2023-04-03T14:46:16.237Z,49.46
2023-04-03T14:48:43.551Z,49.91
2023-04-03T14:51:14.743Z,50.00
2023-04-03T14:53:42.901Z,48.55
2023-04-03T14:56:27.371Z,48.87
2023-04-03T14:58:58.316Z,48.88
2023-04-03T15:01:25.305Z,49.49
2023-04-03T15:03:52.007Z,48.59
2023-04-03T15:06:18.779Z,46.90
2023-04-03T15:08:47.678Z,47.92
2023-04-03T15:11:15.375Z,46.93
2023-04-03T15:13:42.341Z,46.92
2023-04-03T15:16:27.626Z,46.63
2023-04-03T15:18:54.150Z,47.07
2023-04-03T15:21:21.160Z,46.71
2023-04-03T15:23:47.676Z,48.15
2023-04-03T15:26:14.433Z,46.43
2023-04-03T15:28:43.398Z,46.45
2023-04-03T15:31:10.231Z,45.27
2023-04-03T15:33:37.519Z,43.69
2023-04-03T15:36:11.962Z,46.60
2023-04-03T15:38:49.306Z,46.04
2023-04-03T15:41:16.284Z,45.19
2023-04-03T15:43:43.154Z,43.92
2023-04-03T15:46:10.573Z,44.13
2023-04-03T15:48:37.883Z,43.93
2023-04-03T15:51:04.521Z,43.57
2023-04-03T15:53:31.081Z,44.27
2023-04-03T15:55:57.538Z,43.37
2023-04-03T15:58:24.175Z,42.76
2023-04-03T16:00:50.785Z,43.15
2023-04-03T16:03:19.375Z,43.66
2023-04-03T16:05:46.802Z,43.46
2023-04-03T16:08:13.786Z,43.54
2023-04-03T16:10:41.972Z,42.82
2023-04-03T16:13:08.597Z,44.65
2023-04-03T16:15:36.304Z,43.81
2023-04-03T16:18:03.559Z,42.69
2023-04-03T16:20:30.374Z,42.39
2023-04-03T16:22:59.664Z,42.66
2023-04-03T16:25:27.259Z,41.91
2023-04-03T16:27:54.263Z,42.30
2023-04-03T16:30:20.998Z,40.18
2023-04-03T16:32:47.665Z,40.92
2023-04-03T16:35:14.571Z,41.54
2023-04-03T16:37:41.287Z,40.72
2023-04-03T16:40:08.890Z,42.73
2023-04-03T16:42:37.373Z,41.34
2023-04-03T16:45:06.864Z,41.87
2023-04-03T16:47:33.446Z,40.82
2023-04-03T16:50:00.401Z,42.97
2023-04-03T16:52:27.094Z,42.08
2023-04-03T16:54:56.346Z,41.75
2023-04-03T16:57:26.000Z,41.51
2023-04-03T16:59:53.757Z,41.89
2023-04-03T17:02:22.577Z,41.68
2023-04-03T17:04:50.858Z,41.56
2023-04-03T17:07:23.325Z,42.89
2023-04-03T17:09:50.293Z,44.93
2023-04-03T17:12:17.182Z,46.21
2023-04-03T17:14:44.086Z,47.75
2023-04-03T17:17:10.654Z,47.18
2023-04-03T17:19:38.808Z,47.61
2023-04-03T17:22:05.942Z,47.99
2023-04-03T17:24:32.452Z,48.77
2023-04-03T17:27:00.278Z,49.07
2023-04-03T17:29:27.082Z,48.85
2023-04-03T17:31:53.857Z,49.34
2023-04-03T17:34:20.838Z,49.30
2023-04-03T17:36:47.443Z,49.25
2023-04-03T17:39:14.288Z,50.11
2023-04-03T17:41:41.159Z,49.39
2023-04-03T17:44:07.674Z,50.10
2023-04-03T17:46:35.563Z,50.15
2023-04-03T17:49:03.266Z,49.94
2023-04-03T17:51:29.807Z,50.27
2023-04-03T17:53:56.491Z,50.33
2023-04-03T17:56:27.307Z,50.58
2023-04-03T17:58:56.569Z,51.37
2023-04-03T18:01:26.996Z,50.85
2023-04-03T18:03:56.067Z,50.86
2023-04-03T18:06:27.201Z,53.26
2023-04-03T18:08:58.546Z,52.31
2023-04-03T18:11:27.762Z,51.67
2023-04-03T18:13:58.546Z,51.57
2023-04-03T18:16:26.579Z,51.73
2023-04-03T18:19:02.469Z,52.42
2023-04-03T18:21:40.019Z,52.11
2023-04-03T18:24:11.952Z,52.18
2023-04-03T18:26:38.665Z,52.20
2023-04-03T18:29:08.833Z,52.73
2023-04-03T18:31:38.111Z,52.47
2023-04-03T18:34:05.780Z,52.07
2023-04-03T18:36:32.913Z,52.81
2023-04-03T18:39:03.374Z,53.03
2023-04-03T18:41:33.807Z,53.35
2023-04-03T18:44:03.108Z,53.27
2023-04-03T18:46:30.157Z,53.62
2023-04-03T18:48:58.633Z,53.66
2023-04-03T18:51:26.174Z,53.06
2023-04-03T18:53:52.735Z,53.82
2023-04-03T18:56:19.186Z,53.88
2023-04-03T18:58:46.105Z,53.87
2023-04-03T19:01:14.142Z,54.03
2023-04-03T19:03:41.196Z,54.03
2023-04-03T19:06:07.931Z,54.06
2023-04-03T19:08:35.715Z,54.21
2023-04-03T19:11:02.499Z,54.30
2023-04-03T19:13:29.385Z,54.25
2023-04-03T19:15:58.965Z,53.67
2023-04-03T19:18:27.018Z,53.50
2023-04-03T19:20:56.190Z,54.25
2023-04-03T19:23:23.824Z,53.20
2023-04-03T19:26:01.902Z,52.91
2023-04-03T19:28:29.453Z,53.85
2023-04-03T19:30:57.810Z,53.56
2023-04-03T19:33:24.956Z,54.13
2023-04-03T19:35:53.406Z,54.20
2023-04-03T19:38:20.302Z,53.80
2023-04-03T19:40:47.203Z,53.73
2023-04-03T19:43:15.438Z,53.75
2023-04-03T19:45:43.731Z,53.19
2023-04-03T19:48:10.872Z,53.86
2023-04-03T19:50:37.882Z,54.36
2023-04-03T19:53:04.769Z,54.08
2023-04-03T19:55:31.562Z,54.37
2023-04-03T19:57:59.982Z,54.62
2023-04-03T20:00:31.573Z,54.29
2023-04-03T20:02:58.428Z,54.81
2023-04-03T20:05:25.325Z,54.50
2023-04-03T20:07:52.602Z,54.90
2023-04-03T20:10:19.602Z,54.67
2023-04-03T20:12:46.259Z,55.43
2023-04-03T20:15:13.351Z,54.76
2023-04-03T20:17:40.150Z,54.92
2023-04-03T20:20:07.492Z,55.54
2023-04-03T20:22:36.540Z,55.86
2023-04-03T20:25:06.726Z,55.22
2023-04-03T20:27:35.224Z,56.49
2023-04-03T20:30:04.064Z,55.74
2023-04-03T20:32:31.742Z,55.84
2023-04-03T20:35:04.310Z,55.46
2023-04-03T20:37:31.949Z,56.38
2023-04-03T20:39:59.051Z,56.08
2023-04-03T20:42:26.316Z,56.36
2023-04-03T20:44:52.795Z,56.58
2023-04-03T20:47:19.644Z,56.55
2023-04-03T20:49:46.556Z,56.51
2023-04-03T20:52:13.496Z,56.34
2023-04-03T20:54:40.812Z,57.42
2023-04-03T20:57:07.543Z,56.88
2023-04-03T20:59:35.096Z,57.27
2023-04-03T21:02:03.701Z,56.64
2023-04-03T21:04:41.473Z,57.26
2023-04-03T21:07:46.663Z,57.38
2023-04-03T21:10:50.623Z,57.58
2023-04-03T21:13:54.830Z,57.45
2023-04-03T21:16:21.596Z,57.19
2023-04-03T21:19:06.120Z,56.99
2023-04-03T21:21:37.075Z,57.27
2023-04-03T21:24:07.083Z,57.38
2023-04-03T21:26:34.243Z,57.90
2023-04-03T21:29:01.437Z,57.68
2023-04-03T21:31:57.040Z,58.52
2023-04-03T21:34:28.694Z,58.32
2023-04-03T21:36:57.305Z,58.72
2023-04-03T21:39:24.052Z,58.09
2023-04-03T21:41:53.506Z,58.35
2023-04-03T21:44:20.827Z,58.78
2023-04-03T21:46:48.175Z,58.71
2023-04-03T21:49:14.936Z,59.15
2023-04-03T21:51:43.261Z,59.00
2023-04-03T21:54:09.856Z,58.87
2023-04-03T21:56:36.313Z,59.10
2023-04-03T21:59:04.392Z,58.86
2023-04-03T22:01:32.336Z,59.06
2023-04-03T22:03:59.561Z,58.70
2023-04-03T22:06:26.684Z,59.26
2023-04-03T22:08:53.442Z,59.09
2023-04-03T22:11:22.405Z,58.98
2023-04-03T22:13:51.942Z,58.62
2023-04-03T22:16:18.732Z,58.16
2023-04-03T22:18:45.581Z,58.72
2023-04-03T22:21:12.096Z,58.23
2023-04-03T22:23:38.680Z,58.81
2023-04-03T22:26:10.696Z,58.44
2023-04-03T22:28:40.166Z,58.40
2023-04-03T22:31:08.081Z,57.88
2023-04-03T22:33:37.818Z,58.30
2023-04-03T22:36:05.553Z,58.02
2023-04-03T22:38:32.632Z,58.75
2023-04-03T22:40:59.799Z,58.33
2023-04-03T22:43:28.506Z,59.25
2023-04-03T22:45:55.993Z,59.05
2023-04-03T22:48:23.788Z,59.45
2023-04-03T22:50:51.579Z,58.69
2023-04-03T22:53:19.363Z,59.06
2023-04-03T22:56:00.295Z,59.33
2023-04-03T22:58:31.075Z,59.29
2023-04-03T23:01:07.179Z,60.63
2023-04-03T23:03:35.308Z,59.35
2023-04-03T23:06:02.633Z,59.75
2023-04-03T23:08:30.291Z,59.72
2023-04-03T23:10:58.372Z,60.00
2023-04-03T23:13:26.108Z,59.69
2023-04-03T23:15:56.841Z,60.36
2023-04-03T23:18:27.399Z,61.05
2023-04-03T23:20:55.278Z,60.83
2023-04-03T23:23:23.403Z,60.81
2023-04-03T23:25:59.158Z,61.06
2023-04-03T23:28:27.098Z,61.10
2023-04-03T23:31:01.615Z,61.91
2023-04-03T23:33:29.516Z,61.35
2023-04-03T23:35:56.343Z,61.52
2023-04-03T23:38:22.874Z,61.83
2023-04-03T23:40:49.338Z,61.20
2023-04-03T23:43:16.159Z,62.05
2023-04-03T23:45:44.567Z,61.84
2023-04-03T23:48:11.062Z,61.42
2023-04-03T23:50:38.418Z,60.53
2023-04-03T23:53:05.197Z,61.08
2023-04-03T23:55:32.744Z,61.92
2023-04-03T23:57:59.585Z,61.56
